Time;durP1;ratioP1;P1;durP2;ratioP2;P2;SDS_P1;SDS_P2;PMS_P1;PMS_P2;Temp;Humidity;BMP_temperature;BMP_pressure;BME280_temperature;BME280_humidity;BME280_pressure;Samples;Min_cycle;Max_cycle;Signal;HPM_P1;HPM_P2
2022/04/14 00:05:49;;;;;;;9.93;3.17;;;14.90;99.90;;;;;;1958245;72;22242;-84
2022/04/14 00:08:59;;;;;;;16.05;4.83;;;14.80;99.90;;;;;;1917846;75;21054;-86
2022/04/14 00:12:10;;;;;;;13.35;4.25;;;14.80;99.90;;;;;;1917842;75;21046;-84
2022/04/14 00:17:44;;;;;;;9.30;3.65;;;14.80;99.90;;;;;;1970525;72;22237;-84
2022/04/14 00:20:54;;;;;;;9.78;3.25;;;14.80;99.90;;;;;;1928249;74;21098;-85
2022/04/14 00:24:04;;;;;;;8.68;2.98;;;14.80;99.90;;;;;;1916474;74;21232;-84
2022/04/14 00:26:56;;;;;;;8.45;3.02;;;14.80;99.90;;;;;;1905572;75;21109;-84
2022/04/14 00:30:08;;;;;;;9.85;3.40;;;14.80;99.90;;;;;;1912337;74;21117;-84
2022/04/14 00:33:01;;;;;;;13.60;3.75;;;14.80;99.90;;;;;;1905378;75;21153;-84
2022/04/14 00:35:54;;;;;;;10.80;2.80;;;14.70;99.90;;;;;;1905401;75;21102;-84
2022/04/14 00:38:46;;;;;;;9.98;2.75;;;14.60;99.90;;;;;;1905336;75;21081;-86
2022/04/14 00:41:40;;;;;;;8.65;3.60;;;14.60;99.90;;;;;;1927078;74;21094;-86
2022/04/14 00:44:32;;;;;;;8.63;3.42;;;14.60;99.90;;;;;;1908840;74;21114;-86
2022/04/14 00:47:24;;;;;;;5.87;2.37;;;14.60;99.90;;;;;;1905437;75;21056;-84
2022/04/14 00:50:16;;;;;;;12.05;3.75;;;14.50;99.90;;;;;;1923375;74;21094;-85
2022/04/14 00:53:08;;;;;;;17.40;3.45;;;14.50;99.90;;;;;;1907076;74;21049;-84
2022/04/14 00:56:00;;;;;;;8.35;3.52;;;14.50;99.90;;;;;;1920040;74;21047;-84
2022/04/14 01:01:31;;;;;;;6.72;3.10;;;14.40;99.90;;;;;;1947077;72;22286;-84
2022/04/14 01:04:42;;;;;;;8.70;2.30;;;14.40;99.90;;;;;;1917752;75;21168;-85
2022/04/14 01:07:55;;;;;;;6.25;2.52;;;14.30;99.90;;;;;;1921791;73;21579;-84
2022/04/14 01:10:49;;;;;;;7.03;2.20;;;14.20;99.90;;;;;;1949840;73;21051;-84
2022/04/14 01:16:43;;;;;;;5.15;2.12;;;14.10;99.90;;;;;;1957869;72;22182;-83
2022/04/14 01:19:53;;;;;;;8.10;2.17;;;14.10;99.90;;;;;;1899115;75;21066;-83
2022/04/14 01:25:43;;;;;;;5.50;1.92;;;13.80;99.90;;;;;;1954188;72;22300;-83
2022/04/14 01:28:53;;;;;;;7.83;2.55;;;13.80;99.90;;;;;;1885576;75;21060;-84
2022/04/14 01:32:03;;;;;;;5.83;2.52;;;13.80;99.90;;;;;;1895076;75;21044;-85
2022/04/14 01:34:55;;;;;;;8.15;2.12;;;13.80;99.90;;;;;;1891556;75;21060;-85
2022/04/14 01:38:06;;;;;;;6.62;2.25;;;13.70;99.90;;;;;;1888831;75;21136;-84
2022/04/14 01:40:58;;;;;;;5.20;2.25;;;13.70;99.90;;;;;;1885321;75;21069;-84
2022/04/14 01:46:30;;;;;;;4.67;2.10;;;13.60;99.90;;;;;;1953085;72;22146;-83
2022/04/14 01:52:19;;;;;;;5.72;1.80;;;13.40;99.90;;;;;;1935242;72;22251;-84
2022/04/14 01:55:29;;;;;;;8.45;2.08;;;13.30;99.90;;;;;;1884430;75;21113;-84
2022/04/14 01:58:40;;;;;;;6.85;2.27;;;13.40;99.90;;;;;;1883793;75;21099;-84
2022/04/14 02:01:32;;;;;;;8.65;2.15;;;13.40;99.90;;;;;;1883912;75;21056;-85
2022/04/14 02:04:43;;;;;;;3.55;1.72;;;13.30;99.90;;;;;;1899558;75;21080;-84
2022/04/14 02:07:35;;;;;;;7.15;2.10;;;13.20;99.90;;;;;;1905567;75;21554;-85
2022/04/14 02:13:05;;;;;;;6.30;2.25;;;13.10;99.90;;;;;;1944109;72;22113;-83
2022/04/14 02:16:16;;;;;;;7.25;2.20;;;13.10;99.90;;;;;;1917940;75;21051;-85
2022/04/14 02:19:26;;;;;;;5.55;2.20;;;13.10;99.90;;;;;;1940653;73;21054;-84
2022/04/14 02:22:18;;;;;;;7.67;2.00;;;13.10;99.90;;;;;;1917822;75;21590;-84
2022/04/14 02:25:29;;;;;;;5.90;1.92;;;13.10;99.90;;;;;;1917800;75;21046;-84
2022/04/14 02:31:00;;;;;;;4.10;1.70;;;13.00;99.90;;;;;;1948518;72;22121;-84
2022/04/14 02:36:50;;;;;;;7.35;1.80;;;13.00;99.90;;;;;;1957917;72;22151;-84
2022/04/14 02:40:00;;;;;;;7.37;1.82;;;13.10;99.90;;;;;;1894458;75;21154;-85
2022/04/14 02:43:11;;;;;;;6.85;1.87;;;13.00;99.90;;;;;;1886135;75;21128;-84
2022/04/14 02:46:02;;;;;;;6.55;2.22;;;13.00;99.90;;;;;;1887847;75;21137;-84
2022/04/14 02:49:12;;;;;;;6.70;2.20;;;12.90;99.90;;;;;;1887058;75;21084;-84
2022/04/14 02:52:04;;;;;;;6.10;1.77;;;12.80;99.90;;;;;;1883401;75;21103;-84
2022/04/14 02:54:56;;;;;;;4.62;1.98;;;12.70;99.90;;;;;;1883442;75;21538;-84
2022/04/14 02:57:49;;;;;;;6.15;1.80;;;12.60;99.90;;;;;;1885621;75;21596;-84
2022/04/14 03:03:23;;;;;;;5.42;2.22;;;12.40;99.90;;;;;;1938375;72;22201;-84
2022/04/14 03:09:10;;;;;;;6.40;2.10;;;12.40;99.90;;;;;;1940054;72;22236;-84
2022/04/14 03:12:20;;;;;;;6.15;1.80;;;12.50;99.90;;;;;;1893178;75;21121;-85
2022/04/14 03:15:30;;;;;;;5.37;2.25;;;12.40;99.90;;;;;;1903467;75;21117;-84
2022/04/14 03:18:22;;;;;;;5.97;2.05;;;12.40;99.90;;;;;;1886741;75;21094;-84
2022/04/14 03:21:32;;;;;;;6.40;2.00;;;12.40;99.90;;;;;;1885736;75;21020;-84
2022/04/14 03:27:05;;;;;;;15.80;2.50;;;12.30;99.90;;;;;;1958306;72;22146;-82
2022/04/14 03:32:57;;;;;;;6.85;2.20;;;12.20;99.90;;;;;;1958059;72;22145;-83
2022/04/14 03:36:07;;;;;;;5.10;2.08;;;12.10;99.90;;;;;;1897661;75;21145;-84
2022/04/14 03:39:18;;;;;;;5.80;1.85;;;12.10;99.90;;;;;;1884864;76;21050;-85
2022/04/14 03:42:10;;;;;;;7.08;2.77;;;11.90;99.90;;;;;;1892062;75;21084;-85
2022/04/14 03:45:20;;;;;;;6.70;2.15;;;11.90;99.90;;;;;;1892714;75;21094;-85
2022/04/14 03:50:55;;;;;;;7.97;2.33;;;11.90;99.90;;;;;;1949525;72;22087;-83
2022/04/14 03:56:46;;;;;;;5.45;2.30;;;11.80;99.90;;;;;;1948095;72;22183;-84
2022/04/14 03:59:56;;;;;;;5.83;2.30;;;11.70;99.90;;;;;;1928296;74;21098;-84
2022/04/14 04:03:08;;;;;;;7.67;2.42;;;11.70;99.90;;;;;;1910732;74;21135;-85
2022/04/14 04:05:59;;;;;;;6.67;2.42;;;11.70;99.90;;;;;;1905455;75;21498;-84
2022/04/14 04:11:50;;;;;;;5.45;2.20;;;11.80;99.90;;;;;;1938917;72;22113;-84
2022/04/14 04:14:59;;;;;;;7.87;2.22;;;11.90;99.90;;;;;;1926645;73;21724;-84
2022/04/14 04:18:10;;;;;;;7.87;2.72;;;11.90;99.90;;;;;;1925782;73;21187;-86
2022/04/14 04:21:01;;;;;;;5.92;2.55;;;11.80;99.90;;;;;;1915098;75;21038;-85
2022/04/14 04:24:12;;;;;;;9.18;2.67;;;11.80;99.90;;;;;;1926806;73;21104;-86
2022/04/14 04:27:04;;;;;;;8.08;2.90;;;11.60;99.90;;;;;;1933890;73;21196;-85
2022/04/14 04:29:55;;;;;;;6.85;2.62;;;11.70;99.90;;;;;;1930271;73;21090;-84
2022/04/14 04:32:47;;;;;;;8.25;2.62;;;11.70;99.90;;;;;;1931825;73;21156;-84
2022/04/14 04:35:38;;;;;;;6.75;2.70;;;11.70;99.90;;;;;;1937874;73;21115;-84
2022/04/14 04:38:30;;;;;;;8.03;2.12;;;11.80;99.90;;;;;;1932047;73;21087;-84
2022/04/14 04:41:22;;;;;;;5.92;2.15;;;11.80;99.90;;;;;;1930466;73;21058;-84
2022/04/14 04:46:52;;;;;;;9.93;3.37;;;11.80;99.90;;;;;;1934953;72;22355;-84
2022/04/14 04:50:06;;;;;;;5.67;2.70;;;11.70;99.90;;;;;;1899771;75;21055;-84
2022/04/14 04:53:14;;;;;;;8.40;3.00;;;11.70;99.90;;;;;;1894809;75;21558;-85
2022/04/14 04:56:06;;;;;;;6.65;2.20;;;11.70;99.90;;;;;;1892526;75;21107;-85
2022/04/14 05:01:55;;;;;;;6.95;2.37;;;11.80;99.90;;;;;;1946805;72;22250;-79
2022/04/14 05:07:46;;;;;;;4.58;1.75;;;11.90;99.90;;;;;;1973634;72;22777;-78
2022/04/14 05:10:56;;;;;;;8.13;2.08;;;11.90;99.90;;;;;;1917560;75;21051;-79
2022/04/14 05:14:06;;;;;;;9.58;2.40;;;11.90;99.90;;;;;;1917574;74;21161;-80
2022/04/14 05:16:58;;;;;;;6.12;2.25;;;11.80;99.90;;;;;;1926616;74;21105;-80
2022/04/14 05:22:52;;;;;;;6.53;2.52;;;11.90;99.90;;;;;;1966607;72;22268;-79
2022/04/14 05:26:01;;;;;;;6.92;2.00;;;11.90;99.90;;;;;;1927606;73;21051;-80
2022/04/14 05:29:11;;;;;;;5.62;2.40;;;11.90;99.90;;;;;;1928066;73;21074;-80
2022/04/14 05:32:03;;;;;;;6.75;2.10;;;12.00;99.90;;;;;;1917427;75;21125;-80
2022/04/14 05:35:21;;;;;;;6.42;2.15;;;12.00;99.90;;;;;;1921850;73;21189;-81
2022/04/14 05:38:13;;;;;;;7.25;2.17;;;12.10;99.90;;;;;;1917231;73;21766;-80
2022/04/14 05:43:48;;;;;;;6.62;2.22;;;12.10;99.90;;;;;;1945557;72;22216;-81
2022/04/14 05:46:58;;;;;;;9.90;2.60;;;12.10;99.90;;;;;;1900507;75;21130;-80
2022/04/14 05:52:48;;;;;;;8.18;3.65;;;12.10;99.90;;;;;;1957936;72;22123;-79
2022/04/14 05:55:59;;;;;;;10.80;3.75;;;12.10;99.90;;;;;;1901854;75;21155;-79
2022/04/14 05:59:16;;;;;;;9.18;3.60;;;12.20;99.90;;;;;;1901052;75;21102;-80
2022/04/14 06:02:03;;;;;;;8.38;3.40;;;12.20;99.90;;;;;;1896063;75;21549;-79
2022/04/14 06:05:13;;;;;;;8.35;3.25;;;12.20;99.90;;;;;;1907157;75;21105;-79
2022/04/14 06:08:06;;;;;;;7.22;3.50;;;12.20;99.90;;;;;;1891006;75;21130;-79
2022/04/14 06:10:58;;;;;;;7.60;4.05;;;12.20;99.90;;;;;;1902106;74;21088;-78
2022/04/14 06:16:28;;;;;;;8.73;3.75;;;12.20;99.90;;;;;;1938884;72;22222;-76
2022/04/14 06:22:18;;;;;;;7.62;3.87;;;12.30;99.90;;;;;;1933295;72;22188;-79
2022/04/14 06:25:28;;;;;;;11.43;4.40;;;12.40;99.90;;;;;;1907207;75;21156;-77
2022/04/14 06:28:39;;;;;;;8.40;3.80;;;12.40;99.90;;;;;;1900004;75;21076;-77
2022/04/14 06:31:30;;;;;;;6.90;3.15;;;12.40;99.90;;;;;;1917575;75;21113;-77
2022/04/14 06:37:20;;;;;;;7.28;3.10;;;12.40;99.90;;;;;;1944519;72;22307;-77
2022/04/14 06:40:31;;;;;;;6.90;2.62;;;12.40;99.90;;;;;;1936998;73;21578;-79
2022/04/14 06:46:22;;;;;;;7.25;2.92;;;12.30;99.90;;;;;;1952795;72;22174;-79
2022/04/14 06:52:10;;;;;;;7.37;3.27;;;12.30;99.90;;;;;;1946704;72;22268;-79
2022/04/14 06:55:21;;;;;;;7.83;3.15;;;12.30;99.90;;;;;;1919090;74;21050;-78
2022/04/14 07:01:15;;;;;;;6.90;2.80;;;12.40;99.90;;;;;;1950525;72;22119;-80
2022/04/14 07:04:25;;;;;;;10.88;2.92;;;12.40;99.90;;;;;;1907989;75;21130;-78
2022/04/14 07:07:35;;;;;;;8.35;2.47;;;12.40;99.90;;;;;;1885611;75;21078;-78
2022/04/14 07:10:27;;;;;;;9.95;3.17;;;12.50;99.90;;;;;;1900661;75;21062;-78
2022/04/14 07:16:17;;;;;;;8.10;2.42;;;12.50;99.90;;;;;;1943728;72;22616;-77
2022/04/14 07:19:27;;;;;;;11.12;2.83;;;12.60;99.90;;;;;;1926992;73;21114;-77
2022/04/14 07:22:44;;;;;;;10.53;2.75;;;12.70;99.90;;;;;;1923652;73;21185;-78
2022/04/14 07:25:37;;;;;;;4.80;2.33;;;12.80;99.90;;;;;;1917447;75;21088;-78
2022/04/14 07:28:47;;;;;;;6.67;2.67;;;12.90;99.90;;;;;;1917572;75;21047;-77
2022/04/14 07:31:41;;;;;;;5.60;2.60;;;12.90;99.90;;;;;;1917711;75;21121;-78
2022/04/14 07:34:33;;;;;;;5.28;2.50;;;12.90;99.90;;;;;;1917309;75;21056;-78
2022/04/14 07:37:25;;;;;;;7.15;2.37;;;13.00;99.90;;;;;;1927617;73;21098;-77
2022/04/14 07:40:17;;;;;;;8.33;1.95;;;13.00;99.90;;;;;;1943257;73;21051;-77
2022/04/14 07:45:51;;;;;;;5.60;1.90;;;13.10;99.90;;;;;;1958157;72;22128;-79
2022/04/14 07:49:02;;;;;;;5.92;2.25;;;13.20;99.90;;;;;;1884693;75;21059;-78
2022/04/14 07:52:14;;;;;;;5.97;2.50;;;13.40;99.90;;;;;;1898522;75;21139;-78
2022/04/14 07:55:08;;;;;;;8.95;3.65;;;13.60;99.90;;;;;;1893668;75;21139;-78
2022/04/14 08:00:58;;;;;;;12.20;3.70;;;13.70;99.90;;;;;;1930620;72;22280;-77
2022/04/14 08:06:47;;;;;;;10.10;3.37;;;14.00;99.90;;;;;;1962963;72;22288;-77
2022/04/14 08:09:58;;;;;;;11.20;3.85;;;14.10;99.90;;;;;;1939606;73;21608;-77
2022/04/14 08:16:06;;;;;;;7.72;3.45;;;14.30;99.90;;;;;;1934729;72;22142;-79
2022/04/14 08:19:18;;;;;;;7.40;2.95;;;14.40;99.90;;;;;;1901760;74;21045;-77
2022/04/14 08:22:29;;;;;;;8.25;2.98;;;14.50;99.90;;;;;;1911651;75;21036;-79
2022/04/14 08:25:22;;;;;;;8.43;3.25;;;14.60;99.90;;;;;;1912172;75;21117;-79
2022/04/14 08:31:12;;;;;;;5.87;2.20;;;14.70;99.90;;;;;;1958516;72;22276;-79
2022/04/14 08:34:22;;;;;;;4.83;2.00;;;14.80;99.90;;;;;;1911221;75;21065;-78
2022/04/14 08:37:31;;;;;;;7.28;2.85;;;14.90;99.90;;;;;;1895507;75;21129;-78
2022/04/14 08:40:25;;;;;;;7.97;2.40;;;15.00;99.90;;;;;;1911371;75;21640;-79
2022/04/14 08:46:18;;;;;;;6.67;2.60;;;15.10;99.90;;;;;;1954687;72;22256;-79
2022/04/14 08:52:14;;;;;;;5.28;2.20;;;15.20;99.90;;;;;;1942008;72;22190;-79
2022/04/14 08:55:22;;;;;;;6.60;2.37;;;15.30;99.90;;;;;;1900724;74;21059;-78
2022/04/14 08:58:33;;;;;;;6.92;2.70;;;15.40;99.90;;;;;;1909748;74;21143;-79
2022/04/14 09:01:27;;;;;;;6.42;2.42;;;15.50;99.90;;;;;;1906816;75;21593;-78
2022/04/14 09:04:41;;;;;;;7.10;2.58;;;15.60;99.90;;;;;;1917913;74;21031;-77
2022/04/14 09:07:34;;;;;;;9.20;2.98;;;15.70;99.90;;;;;;1931315;74;21136;-77
2022/04/14 09:13:07;;;;;;;8.35;3.17;;;15.80;99.90;;;;;;1943566;72;22278;-78
2022/04/14 09:16:19;;;;;;;5.55;2.70;;;15.80;99.90;;;;;;1920862;73;21128;-77
2022/04/14 09:19:32;;;;;;;10.30;2.80;;;15.80;99.90;;;;;;1917403;75;21108;-77
2022/04/14 09:22:24;;;;;;;7.50;2.83;;;16.00;99.90;;;;;;1917474;75;21584;-77
2022/04/14 09:25:34;;;;;;;6.70;2.80;;;16.10;99.90;;;;;;1917623;75;21049;-78
2022/04/14 09:31:07;;;;;;;6.62;2.10;;;16.20;99.90;;;;;;1941524;72;22149;-77
2022/04/14 09:34:19;;;;;;;6.20;2.50;;;16.30;99.90;;;;;;1906893;74;21109;-76
2022/04/14 09:37:29;;;;;;;7.40;2.42;;;16.40;99.90;;;;;;1917808;74;21525;-77
2022/04/14 09:40:25;;;;;;;10.63;2.70;;;16.40;99.90;;;;;;1895137;74;21117;-77
2022/04/14 09:59:28;;;;;;;10.43;3.15;;;17.00;99.90;;;;;;1946578;72;22193;-78
2022/04/14 10:02:38;;;;;;;14.13;2.90;;;17.10;99.90;;;;;;1905671;75;21206;-78
2022/04/14 10:05:50;;;;;;;6.20;2.55;;;17.20;99.90;;;;;;1905241;75;21063;-78
2022/04/14 10:08:51;;;;;;;6.87;2.45;;;17.30;99.90;;;;;;1891577;75;21176;-78
2022/04/14 10:12:03;;;;;;;7.15;2.08;;;17.40;99.90;;;;;;1884670;76;21533;-79
2022/04/14 10:15:02;;;;;;;7.47;1.82;;;17.50;99.90;;;;;;1898057;75;21252;-78
2022/04/14 10:17:54;;;;;;;7.72;2.60;;;17.60;99.90;;;;;;1906457;75;21105;-79
2022/04/14 10:20:47;;;;;;;5.90;2.02;;;17.70;99.90;;;;;;1888784;75;21055;-78
2022/04/14 10:26:22;;;;;;;6.25;1.95;;;17.90;99.90;;;;;;1944474;72;22124;-77
2022/04/14 10:29:34;;;;;;;3.85;2.17;;;17.80;99.90;;;;;;1896943;75;21105;-77
2022/04/14 10:32:46;;;;;;;9.13;1.90;;;17.90;99.90;;;;;;1896616;75;21087;-78
2022/04/14 10:35:38;;;;;;;6.97;2.05;;;18.00;99.90;;;;;;1913718;75;21062;-78
2022/04/14 10:38:50;;;;;;;7.15;2.10;;;18.10;99.90;;;;;;1896770;74;21046;-78
2022/04/14 10:41:46;;;;;;;7.17;1.85;;;18.20;99.90;;;;;;1906707;75;21170;-78
2022/04/14 10:44:49;;;;;;;7.35;2.15;;;18.20;99.90;;;;;;1868853;76;21187;-78
2022/04/14 10:47:56;;;;;;;10.38;2.05;;;18.20;99.90;;;;;;1901674;75;21143;-79
2022/04/14 10:50:51;;;;;;;9.48;2.37;;;18.30;99.90;;;;;;1900380;75;21138;-77
2022/04/14 10:59:49;;;;;;;9.25;2.70;;;18.70;99.90;;;;;;1945058;72;22181;-79
2022/04/14 11:05:48;;;;;;;6.15;2.62;;;18.90;99.90;;;;;;1948033;72;22183;-77
2022/04/14 11:09:00;;;;;;;8.80;2.22;;;19.10;99.90;;;;;;1917549;75;21090;-78
2022/04/14 11:12:11;;;;;;;7.92;2.10;;;19.20;99.90;;;;;;1944623;73;21493;-77
2022/04/14 11:17:57;;;;;;;3.60;1.57;;;19.30;99.90;;;;;;1945434;72;22107;-79
2022/04/14 11:21:08;;;;;;;5.78;1.62;;;19.30;99.90;;;;;;1924862;73;21099;-78
2022/04/14 11:27:15;;;;;;;6.78;1.85;;;19.40;99.90;;;;;;1951388;72;22189;-76
2022/04/14 11:30:42;;;;;;;6.33;1.87;;;19.50;99.90;;;;;;1940405;73;21050;-77
2022/04/14 11:33:54;;;;;;;6.83;2.20;;;19.70;99.90;;;;;;1923701;73;21098;-77
2022/04/14 11:36:46;;;;;;;5.05;2.00;;;19.80;99.90;;;;;;1917395;75;21106;-77
2022/04/14 11:40:15;;;;;;;3.52;1.85;;;19.90;99.90;;;;;;1917591;75;21121;-77
2022/04/14 11:43:09;;;;;;;5.47;1.98;;;20.00;99.90;;;;;;1917603;75;21111;-77
2022/04/14 11:46:06;;;;;;;5.83;1.87;;;20.20;99.90;;;;;;1928487;73;21058;-77
2022/04/14 11:48:59;;;;;;;3.98;1.85;;;20.10;99.90;;;;;;1917286;75;21053;-77
2022/04/14 11:51:53;;;;;;;6.87;2.10;;;20.20;99.90;;;;;;1917595;75;21114;-77
2022/04/14 11:54:46;;;;;;;6.10;2.02;;;20.30;99.90;;;;;;1917542;75;21106;-78
2022/04/14 11:57:39;;;;;;;6.62;2.42;;;20.40;99.90;;;;;;1917619;75;21062;-76
2022/04/14 12:00:31;;;;;;;3.83;2.08;;;20.50;99.90;;;;;;1917540;75;21125;-78
2022/04/14 12:03:33;;;;;;;5.08;1.87;;;20.60;99.90;;;;;;1924890;73;21163;-77
2022/04/14 12:06:27;;;;;;;5.12;2.17;;;20.60;99.90;;;;;;1916225;73;21060;-77
2022/04/14 12:09:21;;;;;;;6.97;2.40;;;20.60;99.90;;;;;;1935175;73;21179;-77
2022/04/14 12:12:16;;;;;;;8.95;2.70;;;20.70;99.90;;;;;;1917466;75;21057;-77
2022/04/14 12:15:09;;;;;;;4.72;2.12;;;20.60;99.90;;;;;;1917697;75;21128;-77
2022/04/14 12:18:08;;;;;;;6.37;2.40;;;20.70;99.90;;;;;;1917376;75;21044;-77
2022/04/14 12:21:00;;;;;;;4.67;2.42;;;20.90;99.90;;;;;;1928593;73;21110;-77
2022/04/14 12:23:55;;;;;;;7.53;2.20;;;20.80;99.90;;;;;;1932420;73;21123;-77
2022/04/14 12:26:47;;;;;;;5.37;2.40;;;20.80;99.90;;;;;;1909578;75;21303;-77
2022/04/14 12:29:44;;;;;;;7.15;2.52;;;20.90;99.90;;;;;;1919369;75;21353;-77
2022/04/14 12:32:36;;;;;;;6.62;2.55;;;21.10;99.90;;;;;;1905342;75;21164;-78
2022/04/14 12:35:36;;;;;;;8.03;2.60;;;21.10;99.90;;;;;;1916846;73;21154;-76
2022/04/14 12:38:29;;;;;;;4.90;1.82;;;21.20;99.90;;;;;;1918638;73;21152;-78
2022/04/14 12:41:22;;;;;;;5.50;2.20;;;21.30;99.90;;;;;;1910702;73;21083;-78
2022/04/14 12:44:20;;;;;;;7.70;2.60;;;21.40;99.90;;;;;;1933900;73;21125;-77
2022/04/14 12:47:16;;;;;;;6.10;1.90;;;21.40;99.90;;;;;;1950712;73;21077;-77
2022/04/14 12:50:10;;;;;;;5.28;2.20;;;21.30;99.90;;;;;;1919446;74;21113;-77
2022/04/14 12:53:02;;;;;;;4.62;1.85;;;21.40;99.90;;;;;;1918073;73;21129;-78
2022/04/14 12:55:55;;;;;;;5.60;2.12;;;21.60;99.90;;;;;;1945507;73;21104;-77
2022/04/14 12:59:14;;;;;;;5.87;2.22;;;21.60;99.90;;;;;;1916103;73;21064;-80
2022/04/14 13:02:09;;;;;;;6.17;2.25;;;21.70;99.90;;;;;;1916827;75;21063;-81
2022/04/14 13:05:11;;;;;;;3.12;1.90;;;21.80;99.90;;;;;;1928128;73;21070;-80
2022/04/14 13:08:04;;;;;;;8.25;2.37;;;21.80;99.90;;;;;;1904348;75;21098;-81
2022/04/14 13:10:59;;;;;;;7.72;2.65;;;21.90;99.90;;;;;;1904007;73;21132;-81
2022/04/14 13:13:50;;;;;;;7.72;2.87;;;22.00;99.90;;;;;;1904415;75;21572;-81
2022/04/14 13:16:43;;;;;;;5.22;2.40;;;21.90;99.90;;;;;;1904290;75;21079;-80
2022/04/14 13:19:35;;;;;;;6.45;2.40;;;22.00;99.90;;;;;;1904291;75;21133;-80
2022/04/14 13:22:27;;;;;;;5.37;2.33;;;22.00;99.90;;;;;;1904403;75;21093;-80
2022/04/14 13:25:20;;;;;;;4.65;2.10;;;22.10;99.90;;;;;;1904151;75;21110;-81
2022/04/14 13:28:12;;;;;;;13.88;2.40;;;22.20;99.90;;;;;;1926605;73;21110;-81
2022/04/14 13:31:05;;;;;;;6.17;2.00;;;22.30;99.90;;;;;;1916538;73;21482;-81
2022/04/14 13:33:58;;;;;;;7.40;2.70;;;22.40;99.90;;;;;;1896745;75;21133;-80
2022/04/14 13:36:54;;;;;;;8.43;2.12;;;22.30;99.90;;;;;;1941745;73;21175;-81
2022/04/14 13:39:48;;;;;;;5.28;1.90;;;22.20;99.90;;;;;;1916787;75;21124;-81
2022/04/14 13:42:42;;;;;;;8.95;2.40;;;22.30;99.90;;;;;;1931402;73;21087;-81
2022/04/14 13:45:43;;;;;;;5.70;2.35;;;22.30;99.90;;;;;;1916535;73;21101;-81
2022/04/14 13:48:38;;;;;;;8.80;2.30;;;22.50;99.90;;;;;;1922978;73;21130;-81
2022/04/14 13:51:33;;;;;;;7.28;2.27;;;22.70;99.90;;;;;;1925692;73;21386;-81
2022/04/14 13:54:26;;;;;;;5.78;1.92;;;22.80;99.90;;;;;;1931306;73;22316;-82
2022/04/14 13:57:18;;;;;;;15.40;2.52;;;22.60;99.90;;;;;;1913706;75;21110;-82
2022/04/14 14:00:13;;;;;;;8.08;2.22;;;22.70;99.90;;;;;;1923412;74;21048;-82
2022/04/14 14:03:10;;;;;;;6.42;1.95;;;22.70;99.90;;;;;;1916657;75;21058;-82
2022/04/14 14:06:03;;;;;;;6.10;2.20;;;22.80;99.90;;;;;;1916591;75;21617;-81
2022/04/14 14:11:38;;;;;;;6.67;2.00;;;23.50;99.90;;;;;;1948560;72;22081;-81
2022/04/14 14:14:48;;;;;;;5.20;2.00;;;23.90;99.90;;;;;;1917386;75;21057;-81
2022/04/14 14:17:58;;;;;;;7.08;2.17;;;23.90;99.90;;;;;;1910356;75;21149;-81
2022/04/14 14:20:51;;;;;;;7.37;2.12;;;24.20;99.90;;;;;;1909537;75;21184;-81
2022/04/14 14:24:02;;;;;;;3.83;1.65;;;24.60;99.90;;;;;;1870903;76;21067;-80
2022/04/14 14:26:54;;;;;;;4.70;2.15;;;24.80;99.90;;;;;;1903872;75;21485;-81
2022/04/14 14:32:25;;;;;;;7.55;2.12;;;24.90;99.90;;;;;;1933058;72;22580;-82
2022/04/14 14:35:36;;;;;;;4.22;1.70;;;25.00;99.90;;;;;;1896498;74;21020;-84
2022/04/14 14:38:46;;;;;;;5.67;2.00;;;24.80;99.90;;;;;;1897127;75;21192;-81
2022/04/14 14:41:38;;;;;;;7.20;1.70;;;24.90;99.90;;;;;;1917046;75;21050;-82
2022/04/14 14:44:48;;;;;;;5.70;1.70;;;25.20;99.90;;;;;;1904892;75;21081;-81
2022/04/14 14:47:40;;;;;;;5.62;2.42;;;25.20;99.90;;;;;;1906324;75;21306;-80
2022/04/14 14:50:32;;;;;;;4.65;1.90;;;25.20;99.90;;;;;;1885099;75;21180;-81
2022/04/14 14:53:23;;;;;;;5.97;1.80;;;25.30;99.90;;;;;;1906515;75;21686;-81
2022/04/14 14:56:15;;;;;;;7.30;1.80;;;25.50;99.90;;;;;;1884357;75;21074;-81
2022/04/14 14:59:13;;;;;;;5.17;1.70;;;25.40;99.90;;;;;;1889807;75;21133;-81
2022/04/14 15:04:49;;;;;;;5.55;1.70;;;25.60;99.90;;;;;;1927195;72;22114;-80
2022/04/14 15:07:59;;;;;;;3.87;1.50;;;25.60;99.90;;;;;;1899945;75;21140;-80
2022/04/14 15:11:09;;;;;;;2.75;1.80;;;26.00;99.90;;;;;;1901170;75;21124;-82
2022/04/14 15:14:01;;;;;;;7.08;1.70;;;26.30;99.90;;;;;;1903364;75;21128;-80
2022/04/14 15:17:12;;;;;;;8.88;1.72;;;26.40;99.90;;;;;;1911673;75;21227;-80
2022/04/14 15:20:06;;;;;;;5.12;1.50;;;26.30;99.90;;;;;;1887852;75;21194;-80
2022/04/14 15:22:59;;;;;;;4.10;2.17;;;26.30;99.90;;;;;;1866505;76;21102;-79
2022/04/14 15:25:51;;;;;;;5.03;1.70;;;26.30;99.90;;;;;;1863609;76;21099;-80
2022/04/14 15:28:43;;;;;;;4.62;1.92;;;26.10;99.90;;;;;;1902058;75;21110;-80
2022/04/14 15:34:13;;;;;;;3.62;1.40;;;25.80;99.90;;;;;;1940506;72;22309;-80
2022/04/14 15:40:05;;;;;;;5.03;1.50;;;26.10;99.90;;;;;;1953020;72;22106;-80
2022/04/14 15:43:15;;;;;;;6.78;1.95;;;26.10;99.90;;;;;;1917125;75;21162;-81
2022/04/14 15:49:04;;;;;;;3.52;1.60;;;25.70;99.90;;;;;;1940159;72;22402;-81
2022/04/14 15:54:58;;;;;;;3.85;1.77;;;25.80;99.90;;;;;;1948672;72;22239;-82
2022/04/14 16:00:46;;;;;;;5.80;1.85;;;26.20;99.90;;;;;;1943335;72;22147;-81
2022/04/14 16:03:56;;;;;;;6.53;1.60;;;26.20;99.90;;;;;;1895253;75;21211;-80
2022/04/14 16:07:06;;;;;;;3.83;1.45;;;26.10;99.90;;;;;;1904385;75;21090;-80
2022/04/14 16:13:25;;;;;;;7.15;1.60;;;25.90;99.90;;;;;;1904452;75;21071;-80
2022/04/14 16:16:17;;;;;;;3.20;1.40;;;25.80;99.90;;;;;;1914531;75;21205;-80
2022/04/14 16:19:08;;;;;;;5.90;1.98;;;25.50;99.90;;;;;;1909255;75;21112;-81
2022/04/14 16:22:02;;;;;;;4.92;1.47;;;25.40;99.90;;;;;;1917397;75;21060;-80
2022/04/14 16:24:53;;;;;;;4.62;1.50;;;25.50;99.90;;;;;;1912609;73;21502;-81
2022/04/14 16:27:45;;;;;;;3.77;1.50;;;25.60;99.90;;;;;;1904424;75;21206;-82
2022/04/14 16:30:38;;;;;;;4.65;1.50;;;25.60;99.90;;;;;;1909887;75;21093;-81
2022/04/14 16:33:30;;;;;;;4.00;1.60;;;25.30;99.90;;;;;;1910395;75;21142;-81
2022/04/14 16:39:02;;;;;;;5.35;1.90;;;25.50;99.90;;;;;;1947195;72;22290;-79
2022/04/14 16:44:53;;;;;;;3.52;1.57;;;25.40;99.90;;;;;;1953339;72;22111;-80
2022/04/14 16:48:04;;;;;;;4.85;1.37;;;25.30;99.90;;;;;;1884410;76;21124;-80
2022/04/14 16:51:14;;;;;;;4.60;1.90;;;24.90;99.90;;;;;;1883606;76;21055;-80
2022/04/14 16:54:08;;;;;;;4.85;1.60;;;24.50;99.90;;;;;;1906940;73;21113;-80
2022/04/14 16:57:19;;;;;;;3.35;1.72;;;24.50;99.90;;;;;;1899368;75;21055;-80
2022/04/14 17:00:15;;;;;;;6.95;1.85;;;24.20;99.90;;;;;;1915095;75;21142;-79
2022/04/14 17:05:46;;;;;;;3.25;1.60;;;23.70;99.90;;;;;;1941443;72;22249;-80
2022/04/14 17:08:56;;;;;;;11.30;2.10;;;23.60;99.90;;;;;;1930517;73;21095;-80
2022/04/14 17:12:08;;;;;;;4.30;1.70;;;23.50;99.90;;;;;;1926231;73;21133;-80
2022/04/14 17:15:00;;;;;;;6.60;1.82;;;23.40;99.90;;;;;;1925725;73;21054;-80
2022/04/14 17:18:10;;;;;;;4.87;1.82;;;23.40;99.90;;;;;;1929508;73;21120;-79
2022/04/14 17:21:02;;;;;;;6.53;2.20;;;23.20;99.90;;;;;;1940175;73;21556;-80
2022/04/14 17:27:03;;;;;;;5.30;1.62;;;23.10;99.90;;;;;;1917484;73;21179;-80
2022/04/14 17:29:55;;;;;;;6.30;2.08;;;22.80;99.90;;;;;;1929626;73;21098;-80
2022/04/14 17:32:47;;;;;;;6.42;1.95;;;22.50;99.90;;;;;;1938216;73;21122;-83
2022/04/14 17:35:39;;;;;;;4.03;1.67;;;22.20;99.90;;;;;;1930502;73;21121;-80
2022/04/14 17:38:33;;;;;;;4.85;1.75;;;22.10;99.90;;;;;;1926694;73;21474;-80
2022/04/14 17:41:25;;;;;;;4.33;1.50;;;21.90;99.90;;;;;;1917727;73;21125;-80
2022/04/14 17:44:18;;;;;;;5.92;1.98;;;21.80;99.90;;;;;;1936548;73;21789;-80
2022/04/14 17:47:10;;;;;;;6.35;1.77;;;21.80;99.90;;;;;;1926416;73;21098;-80
2022/04/14 17:50:04;;;;;;;8.20;1.82;;;21.80;99.90;;;;;;1924305;73;21132;-80
2022/04/14 17:55:35;;;;;;;7.55;2.50;;;21.70;99.90;;;;;;1954295;72;22134;-80
2022/04/14 17:58:45;;;;;;;4.97;2.00;;;21.60;99.90;;;;;;1934790;73;21050;-80
2022/04/14 18:04:35;;;;;;;4.92;2.00;;;21.40;99.90;;;;;;1954997;72;22296;-80
2022/04/14 18:10:25;;;;;;;4.15;1.85;;;21.30;99.90;;;;;;1947633;72;22139;-81
2022/04/14 18:13:35;;;;;;;5.45;1.80;;;21.20;99.90;;;;;;1918915;74;21433;-82
2022/04/14 18:16:46;;;;;;;7.30;2.42;;;21.30;99.90;;;;;;1888403;75;21095;-81
2022/04/14 18:19:37;;;;;;;5.80;2.10;;;21.10;99.90;;;;;;1913943;75;21207;-80
2022/04/14 18:22:53;;;;;;;7.72;1.98;;;21.00;99.90;;;;;;1915101;75;21152;-81
2022/04/14 18:28:29;;;;;;;7.12;2.35;;;20.80;99.90;;;;;;1943460;72;22223;-81
2022/04/14 18:34:17;;;;;;;10.05;2.77;;;20.70;99.90;;;;;;1948125;72;22103;-80
2022/04/14 18:40:09;;;;;;;4.87;2.25;;;20.70;99.90;;;;;;1960541;72;22133;-80
2022/04/14 18:43:19;;;;;;;3.45;2.37;;;20.60;99.90;;;;;;1941062;73;21571;-80
2022/04/14 18:46:29;;;;;;;6.70;2.12;;;20.50;99.90;;;;;;1928653;73;21212;-81
2022/04/14 18:49:21;;;;;;;8.63;2.67;;;20.50;99.90;;;;;;1919723;73;21014;-81
2022/04/14 18:52:31;;;;;;;5.62;2.90;;;20.50;99.90;;;;;;1926092;73;21062;-80